createdAt,value
2018-01-29T00:00:40.572Z,87.99
2018-01-29T00:01:41.245Z,87.94
2018-01-29T00:02:40.665Z,87.91
2018-01-29T00:03:41.031Z,88.1
2018-01-29T00:04:40.444Z,88.11
2018-01-29T00:05:40.465Z,88.2
2018-01-29T00:06:41.180Z,88.26
2018-01-29T00:07:40.075Z,88.32
2018-01-29T00:08:40.770Z,88.38
2018-01-29T00:09:40.716Z,88.41
2018-01-29T00:10:40.129Z,88.52
2018-01-29T00:11:40.598Z,88.5
2018-01-29T00:12:40.436Z,88.54
2018-01-29T00:13:40.233Z,88.56
2018-01-29T00:14:40.128Z,88.6
2018-01-29T00:15:40.141Z,88.66
2018-01-29T00:16:40.481Z,88.82
2018-01-29T00:17:41.629Z,88.87
2018-01-29T00:18:41.619Z,88.85
2018-01-29T00:19:41.616Z,88.88
2018-01-29T00:20:40.607Z,88.78
2018-01-29T00:21:40.087Z,88.74
2018-01-29T00:22:40.439Z,88.87
2018-01-29T00:23:41.201Z,88.88
2018-01-29T00:24:40.964Z,88.98
2018-01-29T00:25:40.629Z,88.9
2018-01-29T00:26:39.986Z,88.85
2018-01-29T00:27:40.630Z,88.87
2018-01-29T00:28:40.306Z,88.89
2018-01-29T00:29:40.347Z,88.89
2018-01-29T00:30:39.717Z,88.82
2018-01-29T00:31:39.585Z,88.71
2018-01-29T00:32:38.955Z,88.65
2018-01-29T00:33:40.559Z,88.73
2018-01-29T00:34:38.919Z,88.75
2018-01-29T00:35:39.889Z,88.72
2018-01-29T00:36:40.685Z,88.79
2018-01-29T00:37:40.404Z,88.79
2018-01-29T00:38:40.424Z,88.76
2018-01-29T00:39:39.588Z,88.74
2018-01-29T00:40:40.455Z,88.61
2018-01-29T00:41:40.689Z,88.68
2018-01-29T00:42:40.197Z,88.71
2018-01-29T00:43:39.240Z,88.87
2018-01-29T00:44:40.597Z,88.82
2018-01-29T00:45:41.657Z,88.82
2018-01-29T00:46:41.473Z,88.81
2018-01-29T00:47:38.934Z,88.78
2018-01-29T00:48:40.543Z,88.76
2018-01-29T00:49:40.470Z,88.78
2018-01-29T00:50:39.607Z,88.81
2018-01-29T00:51:40.321Z,88.83
2018-01-29T00:52:38.879Z,88.8
2018-01-29T00:53:39.497Z,88.84
2018-01-29T00:54:40.077Z,88.81
2018-01-29T00:55:39.121Z,88.88
2018-01-29T00:56:39.564Z,88.73
2018-01-29T00:57:39.133Z,88.64
2018-01-29T00:58:39.165Z,88.55
2018-01-29T00:59:41.840Z,88.66
2018-01-29T01:00:39.606Z,88.76
2018-01-29T01:01:41.077Z,88.61
2018-01-29T01:02:39.221Z,88.63
2018-01-29T01:03:38.749Z,88.54
2018-01-29T01:04:39.642Z,88.65
2018-01-29T01:05:39.545Z,88.66
2018-01-29T01:06:38.989Z,88.63
2018-01-29T01:07:38.954Z,88.68
2018-01-29T01:08:39.015Z,88.6
2018-01-29T01:09:38.960Z,88.52
2018-01-29T01:10:39.462Z,88.57
2018-01-29T01:11:39.680Z,88.47
2018-01-29T01:12:38.966Z,88.34
2018-01-29T01:13:39.628Z,88.27
2018-01-29T01:14:39.986Z,88.4
2018-01-29T01:15:39.000Z,88.44
2018-01-29T01:16:38.893Z,88.32
2018-01-29T01:17:41.841Z,88.32
2018-01-29T01:18:38.824Z,88.18
2018-01-29T01:19:41.336Z,88.14
2018-01-29T01:20:39.852Z,88.14
2018-01-29T01:21:40.286Z,88.12
2018-01-29T01:22:40.431Z,88.2
2018-01-29T01:23:40.709Z,88.24
2018-01-29T01:24:39.530Z,88.22
2018-01-29T01:25:41.014Z,88.26
2018-01-29T01:26:42.379Z,88.12
2018-01-29T01:27:40.424Z,88.22
2018-01-29T01:28:40.123Z,88.23
2018-01-29T01:29:38.935Z,88.18
2018-01-29T01:30:40.946Z,88.02
2018-01-29T01:31:40.328Z,88.09
2018-01-29T01:32:39.607Z,88.13
2018-01-29T01:33:39.552Z,88.08
2018-01-29T01:34:38.811Z,87.96
2018-01-29T01:35:39.639Z,88.06
2018-01-29T01:36:41.098Z,88.07
2018-01-29T01:37:40.585Z,88.16
2018-01-29T01:38:40.241Z,88.07
2018-01-29T01:39:39.087Z,88.16
2018-01-29T01:40:39.933Z,88.18
2018-01-29T01:41:41.068Z,87.98
2018-01-29T01:42:42.460Z,88.14
2018-01-29T01:43:38.942Z,88.06
2018-01-29T01:44:39.897Z,88.1
2018-01-29T01:45:39.776Z,88.04
2018-01-29T01:46:39.281Z,88.11
2018-01-29T01:47:39.635Z,88.16
2018-01-29T01:48:40.001Z,88.21
2018-01-29T01:49:39.120Z,88.18
2018-01-29T01:50:39.536Z,88.3
2018-01-29T01:51:38.935Z,88.28
2018-01-29T01:52:39.168Z,88.28
2018-01-29T01:53:39.163Z,88.28
2018-01-29T01:54:39.538Z,88.3
2018-01-29T01:55:39.603Z,88.28
2018-01-29T01:56:39.023Z,88.34
2018-01-29T01:57:39.410Z,88.34
2018-01-29T01:58:39.077Z,88.4
2018-01-29T01:59:39.748Z,88.51
2018-01-29T02:00:39.232Z,88.56
2018-01-29T02:01:40.738Z,88.59
2018-01-29T02:02:39.883Z,88.57
2018-01-29T02:03:40.833Z,88.69
2018-01-29T02:04:40.560Z,88.69
2018-01-29T02:05:39.096Z,88.77
2018-01-29T02:06:39.704Z,88.78
2018-01-29T02:07:38.873Z,88.85
2018-01-29T02:08:39.969Z,88.81
2018-01-29T02:09:39.778Z,88.87
2018-01-29T02:10:38.955Z,88.97
2018-01-29T02:11:39.046Z,88.97
2018-01-29T02:12:43.162Z,89.01
2018-01-29T02:13:41.208Z,89.09
2018-01-29T02:14:41.264Z,89.2
2018-01-29T02:15:40.393Z,89.15
2018-01-29T02:16:39.793Z,89.23
2018-01-29T02:17:40.783Z,89.26
2018-01-29T02:18:39.808Z,89.27
2018-01-29T02:19:39.951Z,89.27
2018-01-29T02:20:40.212Z,89.39
2018-01-29T02:21:39.962Z,89.51
2018-01-29T02:22:39.768Z,89.47
2018-01-29T02:23:39.897Z,89.48
2018-01-29T02:24:40.426Z,89.46
2018-01-29T02:25:39.602Z,89.54
2018-01-29T02:26:41.737Z,89.5
2018-01-29T02:27:39.672Z,89.46
2018-01-29T02:28:41.905Z,89.42
2018-01-29T02:29:39.728Z,89.39
2018-01-29T02:30:39.355Z,89.42
2018-01-29T02:31:39.189Z,89.35
2018-01-29T02:32:40.147Z,89.58
2018-01-29T02:33:39.147Z,89.6
2018-01-29T02:34:41.552Z,89.67
2018-01-29T02:35:39.657Z,89.59
2018-01-29T02:36:41.045Z,89.68
2018-01-29T02:37:40.113Z,89.59
2018-01-29T02:38:39.053Z,89.51
2018-01-29T02:39:39.174Z,89.57
2018-01-29T02:40:39.919Z,89.46
2018-01-29T02:41:41.249Z,89.48
2018-01-29T02:42:39.994Z,89.38
2018-01-29T02:43:40.800Z,89.46
2018-01-29T02:44:41.315Z,89.38
2018-01-29T02:45:40.218Z,89.38
2018-01-29T02:46:40.850Z,89.38
2018-01-29T02:47:41.565Z,89.37
2018-01-29T02:48:39.063Z,89.39
2018-01-29T02:49:40.077Z,89.4
2018-01-29T02:50:39.087Z,89.46
2018-01-29T02:51:39.094Z,89.55
2018-01-29T02:52:39.298Z,89.54
2018-01-29T02:53:39.281Z,89.44
2018-01-29T02:54:39.342Z,89.57
2018-01-29T02:55:41.835Z,89.57
2018-01-29T02:56:42.038Z,89.58
2018-01-29T02:57:40.098Z,89.52
2018-01-29T02:58:40.719Z,89.59
2018-01-29T02:59:39.788Z,89.63
2018-01-29T03:00:40.633Z,89.68
2018-01-29T03:01:40.414Z,89.69
2018-01-29T03:02:39.840Z,89.72
2018-01-29T03:03:40.327Z,89.77
2018-01-29T03:04:40.664Z,89.77
2018-01-29T03:05:39.920Z,89.89
2018-01-29T03:06:41.248Z,89.89
2018-01-29T03:07:39.156Z,89.78
2018-01-29T03:08:38.886Z,89.83
2018-01-29T03:09:40.092Z,89.81
2018-01-29T03:10:39.177Z,89.74
2018-01-29T03:11:38.904Z,89.78
2018-01-29T03:12:39.125Z,89.77
2018-01-29T03:13:38.945Z,89.77
2018-01-29T03:14:39.511Z,89.82
2018-01-29T03:15:40.206Z,89.84
2018-01-29T03:16:40.188Z,89.82
2018-01-29T03:17:39.874Z,89.86
2018-01-29T03:18:39.764Z,89.83
2018-01-29T03:19:39.136Z,89.99
2018-01-29T03:20:39.225Z,89.92
2018-01-29T03:21:39.286Z,89.91
2018-01-29T03:22:40.973Z,89.89
2018-01-29T03:23:39.758Z,89.97
2018-01-29T03:24:39.162Z,90
2018-01-29T03:25:39.447Z,90.03
2018-01-29T03:26:41.091Z,90.13
2018-01-29T03:27:39.205Z,90.2
2018-01-29T03:28:39.625Z,90.21
2018-01-29T03:29:40.646Z,90.19
2018-01-29T03:30:39.468Z,90.25
2018-01-29T03:31:39.744Z,90.29
2018-01-29T03:32:40.047Z,90.27
2018-01-29T03:33:39.246Z,90.33
2018-01-29T03:34:39.030Z,90.3
2018-01-29T03:35:40.241Z,90.34
2018-01-29T03:36:39.323Z,90.39
2018-01-29T03:37:40.056Z,90.41
2018-01-29T03:38:39.215Z,90.35
2018-01-29T03:39:41.088Z,90.39
2018-01-29T03:40:40.094Z,90.46
2018-01-29T03:41:39.032Z,90.37
2018-01-29T03:42:42.366Z,90.57
2018-01-29T03:43:39.066Z,90.57
2018-01-29T03:44:39.013Z,90.45
2018-01-29T03:45:40.114Z,90.57
2018-01-29T03:46:38.921Z,90.55
2018-01-29T03:47:39.100Z,90.67
2018-01-29T03:48:39.400Z,90.74
2018-01-29T03:49:39.262Z,90.64
2018-01-29T03:50:39.422Z,90.66
2018-01-29T03:51:40.013Z,90.8
2018-01-29T03:52:40.667Z,90.76
2018-01-29T03:53:41.235Z,90.88
2018-01-29T03:54:39.888Z,90.92
2018-01-29T03:55:39.666Z,91.05
2018-01-29T03:56:40.030Z,90.9
2018-01-29T03:57:40.586Z,90.93
2018-01-29T03:58:41.780Z,91.22
2018-01-29T03:59:40.864Z,91.08
2018-01-29T04:00:39.337Z,91.22
2018-01-29T04:01:40.171Z,91.17
2018-01-29T04:02:40.193Z,91.19
2018-01-29T04:03:39.256Z,91.32
2018-01-29T04:04:39.669Z,91.12
2018-01-29T04:05:40.068Z,91.13
2018-01-29T04:06:40.054Z,91.22
2018-01-29T04:07:40.029Z,91.25
2018-01-29T04:08:40.552Z,91.24
2018-01-29T04:09:39.660Z,91.36
2018-01-29T04:10:40.155Z,91.44
2018-01-29T04:11:39.356Z,91.47
2018-01-29T04:12:39.921Z,91.57
2018-01-29T04:13:40.574Z,91.69
2018-01-29T04:14:39.863Z,91.65
2018-01-29T04:15:39.834Z,91.6
2018-01-29T04:16:40.710Z,91.55
2018-01-29T04:17:40.049Z,91.53
2018-01-29T04:18:40.085Z,91.5
2018-01-29T04:19:40.610Z,91.45
2018-01-29T04:20:39.325Z,91.43
2018-01-29T04:21:39.401Z,91.15
2018-01-29T04:22:41.560Z,91.18
2018-01-29T04:23:39.302Z,91.1
2018-01-29T04:24:39.300Z,91.09
2018-01-29T04:25:39.799Z,91.15
2018-01-29T04:26:39.203Z,91.21
2018-01-29T04:27:39.850Z,91.27
2018-01-29T04:28:40.097Z,91.12
2018-01-29T04:29:39.364Z,91.13
2018-01-29T04:30:39.419Z,91.12
2018-01-29T04:31:40.413Z,91.17
2018-01-29T04:32:40.629Z,91.17
2018-01-29T04:33:39.223Z,91.17
2018-01-29T04:34:41.925Z,91.07
2018-01-29T04:35:39.566Z,91.01
2018-01-29T04:36:39.835Z,90.99
2018-01-29T04:37:41.407Z,91.05
2018-01-29T04:38:39.776Z,91.07
2018-01-29T04:39:39.754Z,90.93
2018-01-29T04:40:41.294Z,90.82
2018-01-29T04:41:40.932Z,90.75
2018-01-29T04:42:40.086Z,90.8
2018-01-29T04:43:42.823Z,90.75
2018-01-29T04:44:39.553Z,90.67
2018-01-29T04:45:39.969Z,90.62
2018-01-29T04:46:39.974Z,90.63
2018-01-29T04:47:39.777Z,90.61
2018-01-29T04:48:39.238Z,90.62
2018-01-29T04:49:39.441Z,90.65
2018-01-29T04:50:41.506Z,90.6
2018-01-29T04:51:39.928Z,90.54
2018-01-29T04:52:39.216Z,90.55
2018-01-29T04:53:40.161Z,90.52
2018-01-29T04:54:40.375Z,90.55
2018-01-29T04:55:39.740Z,90.51
2018-01-29T04:56:39.451Z,90.55
2018-01-29T04:57:41.367Z,90.61
2018-01-29T04:58:42.029Z,90.55
2018-01-29T04:59:40.779Z,90.44
2018-01-29T05:00:40.149Z,90.53
2018-01-29T05:01:39.366Z,90.44
2018-01-29T05:02:39.422Z,90.39
2018-01-29T05:03:40.009Z,90.39
2018-01-29T05:04:40.105Z,90.39
2018-01-29T05:05:39.281Z,90.41
2018-01-29T05:06:44.228Z,90.51
2018-01-29T05:07:40.450Z,90.38
2018-01-29T05:08:39.224Z,90.35
2018-01-29T05:09:39.427Z,90.34
2018-01-29T05:10:40.913Z,90.34
2018-01-29T05:11:39.906Z,90.3
2018-01-29T05:15:40.701Z,90.23
2018-01-29T05:16:40.161Z,90.29
2018-01-29T05:17:40.031Z,90.28
2018-01-29T05:18:39.880Z,90.08
2018-01-29T05:19:42.757Z,90.08
2018-01-29T05:20:40.278Z,90.07
2018-01-29T05:21:39.838Z,90.07
2018-01-29T05:22:39.128Z,89.97
2018-01-29T05:23:40.895Z,90.03
2018-01-29T05:24:40.856Z,90.04
2018-01-29T05:25:41.419Z,90
2018-01-29T05:26:40.603Z,90.05
2018-01-29T05:27:39.854Z,90.07
2018-01-29T05:28:39.913Z,90.17
2018-01-29T05:29:40.643Z,90.08
2018-01-29T05:30:39.481Z,90.15
2018-01-29T05:31:41.434Z,90.08
2018-01-29T05:32:39.780Z,90.12
2018-01-29T05:33:41.202Z,90.04
2018-01-29T05:34:39.413Z,90.06
2018-01-29T05:35:39.321Z,90
2018-01-29T05:36:39.941Z,90.03
2018-01-29T05:37:40.359Z,90.01
2018-01-29T05:38:40.046Z,90.01
2018-01-29T05:39:40.645Z,89.99
2018-01-29T05:40:39.331Z,90.02
2018-01-29T05:41:40.458Z,90.07
2018-01-29T05:42:39.365Z,89.93
2018-01-29T05:43:39.310Z,89.75
2018-01-29T05:44:39.511Z,89.8
2018-01-29T05:45:39.633Z,89.79
2018-01-29T05:46:40.712Z,89.81
2018-01-29T05:47:41.554Z,89.79
2018-01-29T05:48:39.502Z,89.79
2018-01-29T05:49:41.326Z,89.78
2018-01-29T05:50:40.285Z,89.8
2018-01-29T05:51:40.358Z,89.78
2018-01-29T05:52:40.285Z,89.76
2018-01-29T05:53:39.313Z,89.79
2018-01-29T05:54:41.575Z,89.63
2018-01-29T05:55:39.408Z,89.7
2018-01-29T05:56:40.837Z,89.68
2018-01-29T05:57:39.672Z,89.68
2018-01-29T05:58:40.971Z,89.61
2018-01-29T06:01:59.545Z,89.73
2018-01-29T06:02:41.361Z,89.7
2018-01-29T06:03:39.860Z,89.67
2018-01-29T06:04:40.154Z,89.53
2018-01-29T06:05:39.842Z,89.59
2018-01-29T06:06:40.007Z,89.62
2018-01-29T06:07:41.439Z,89.46
2018-01-29T06:08:40.804Z,89.47
2018-01-29T06:09:40.578Z,89.51
2018-01-29T06:10:42.049Z,89.52
2018-01-29T06:11:42.968Z,89.47
2018-01-29T06:12:40.016Z,89.44
2018-01-29T06:13:40.738Z,89.32
2018-01-29T06:14:42.162Z,89.33
2018-01-29T06:15:39.802Z,89.38
2018-01-29T06:16:43.404Z,89.32
2018-01-29T06:17:40.005Z,89.22
2018-01-29T06:18:41.357Z,89.21
2018-01-29T06:19:39.927Z,89.29
2018-01-29T06:20:42.336Z,89.23
2018-01-29T06:21:41.289Z,89.22
2018-01-29T06:22:41.052Z,89.36
2018-01-29T06:23:40.450Z,89.3
2018-01-29T06:24:40.368Z,89.23
2018-01-29T06:25:39.988Z,89.23
2018-01-29T06:26:42.304Z,89.18
2018-01-29T06:27:39.971Z,89.11
2018-01-29T06:28:41.171Z,89.16
2018-01-29T06:29:39.893Z,89.12
2018-01-29T06:30:39.886Z,89.11
2018-01-29T06:31:40.995Z,89.03
2018-01-29T06:32:41.309Z,89.09
2018-01-29T06:33:40.562Z,88.99
2018-01-29T06:34:38.920Z,89.06
2018-01-29T06:35:40.144Z,89.04
2018-01-29T06:36:38.893Z,89.11
2018-01-29T06:37:38.991Z,89.05
2018-01-29T06:38:39.279Z,89.03
2018-01-29T06:39:38.916Z,89.1
2018-01-29T06:40:38.896Z,89.03
2018-01-29T06:41:38.798Z,89.14
2018-01-29T06:42:39.017Z,89.21
2018-01-29T06:43:39.049Z,89.1
2018-01-29T06:44:38.836Z,89.16
2018-01-29T06:45:38.851Z,89.22
2018-01-29T06:46:38.880Z,89.25
2018-01-29T06:47:38.937Z,89.22
2018-01-29T06:48:38.824Z,89.3
2018-01-29T06:49:38.841Z,89.24
2018-01-29T06:50:38.932Z,89.32
2018-01-29T06:51:39.018Z,89.39
2018-01-29T06:52:39.008Z,89.27
2018-01-29T06:53:38.988Z,89.23
2018-01-29T06:54:39.574Z,89.26
2018-01-29T06:55:38.991Z,89.22
2018-01-29T06:56:39.019Z,89.23
2018-01-29T06:57:39.000Z,89.27
2018-01-29T06:58:39.089Z,89.31
2018-01-29T06:59:38.991Z,89.29
2018-01-29T07:00:38.990Z,89.27
2018-01-29T07:01:39.034Z,89.35
2018-01-29T07:02:39.027Z,89.31
2018-01-29T07:03:39.420Z,89.34
2018-01-29T07:04:39.163Z,89.37
2018-01-29T07:05:39.146Z,89.33
2018-01-29T07:06:39.291Z,89.28
2018-01-29T07:07:39.365Z,89.38
2018-01-29T07:08:39.314Z,89.37
2018-01-29T07:09:39.230Z,89.4
2018-01-29T07:10:39.103Z,89.41
2018-01-29T07:11:39.226Z,89.45
2018-01-29T07:12:39.253Z,89.38
2018-01-29T07:13:39.284Z,89.46
2018-01-29T07:14:39.144Z,89.39
2018-01-29T07:15:39.081Z,89.42
2018-01-29T07:16:39.155Z,89.41
2018-01-29T07:17:39.182Z,89.41
2018-01-29T07:18:39.297Z,89.55
2018-01-29T07:19:39.253Z,89.5
2018-01-29T07:20:39.307Z,89.44
2018-01-29T07:21:39.211Z,89.51
2018-01-29T07:22:39.598Z,89.63
2018-01-29T07:23:39.503Z,89.59
2018-01-29T07:24:39.656Z,89.6
2018-01-29T07:25:39.457Z,89.52
2018-01-29T07:26:39.555Z,89.6
2018-01-29T07:27:39.183Z,89.44
2018-01-29T07:28:39.234Z,89.49
2018-01-29T07:29:39.033Z,89.38
2018-01-29T07:30:39.290Z,89.47
2018-01-29T07:31:39.236Z,89.52
2018-01-29T07:32:39.129Z,89.6
2018-01-29T07:33:39.513Z,89.5
2018-01-29T07:34:39.339Z,89.58
2018-01-29T07:35:39.287Z,89.49
2018-01-29T07:36:39.469Z,89.69
2018-01-29T07:37:39.349Z,89.71
2018-01-29T07:38:39.277Z,89.81
2018-01-29T07:39:39.454Z,89.87
2018-01-29T07:40:39.432Z,89.92
2018-01-29T07:41:39.166Z,89.77
2018-01-29T07:42:39.560Z,89.8
2018-01-29T07:43:39.405Z,89.78
2018-01-29T07:44:39.550Z,89.81
2018-01-29T07:45:39.523Z,89.81
2018-01-29T07:46:39.530Z,89.74
2018-01-29T07:47:39.389Z,89.65
2018-01-29T07:48:39.600Z,89.57
2018-01-29T07:49:39.490Z,89.48
2018-01-29T07:50:39.648Z,89.67
2018-01-29T07:51:39.645Z,89.64
2018-01-29T07:52:39.587Z,89.78
2018-01-29T07:53:39.607Z,89.69
2018-01-29T07:54:39.544Z,89.66
2018-01-29T07:55:39.648Z,89.69
2018-01-29T07:56:39.602Z,89.74
2018-01-29T07:57:39.530Z,89.79
2018-01-29T07:58:39.519Z,89.84
2018-01-29T07:59:39.439Z,89.95
2018-01-29T08:00:39.440Z,89.95
2018-01-29T08:01:39.478Z,89.86
2018-01-29T08:02:39.450Z,89.76
2018-01-29T08:03:39.662Z,89.74
2018-01-29T08:04:39.540Z,89.78
2018-01-29T08:05:39.573Z,89.97
2018-01-29T08:06:39.477Z,89.86
2018-01-29T08:07:39.627Z,90.04
2018-01-29T08:08:39.498Z,90.03
2018-01-29T08:09:39.618Z,90.08
2018-01-29T08:10:39.696Z,90.06
2018-01-29T08:11:39.818Z,90.15
2018-01-29T08:12:39.568Z,90.15
2018-01-29T08:13:39.499Z,90.13
2018-01-29T08:14:39.506Z,90.1
2018-01-29T08:15:39.551Z,89.91
2018-01-29T08:16:39.505Z,89.89
2018-01-29T08:17:39.436Z,90.07
2018-01-29T08:18:39.570Z,89.91
2018-01-29T08:19:39.460Z,90.23
2018-01-29T08:20:39.518Z,90.11
2018-01-29T08:21:39.554Z,90.16
2018-01-29T08:22:39.597Z,90.15
2018-01-29T08:23:39.631Z,90.36
2018-01-29T08:24:39.478Z,90.15
2018-01-29T08:25:39.500Z,90.09
2018-01-29T08:26:39.496Z,90.2
2018-01-29T08:27:39.605Z,90.32
2018-01-29T08:28:39.755Z,90.41
2018-01-29T08:29:39.402Z,90.29
2018-01-29T08:30:39.525Z,90.42
2018-01-29T08:31:39.643Z,90.28
2018-01-29T08:32:39.579Z,90.29
2018-01-29T08:33:39.828Z,90.29
2018-01-29T08:34:39.565Z,90.43
2018-01-29T08:35:39.535Z,90.6
2018-01-29T08:36:39.802Z,90.58
2018-01-29T08:37:39.533Z,90.5
2018-01-29T08:38:39.582Z,90.43
2018-01-29T08:39:39.536Z,90.33
2018-01-29T08:40:39.545Z,90.15
2018-01-29T08:41:39.625Z,90.15
2018-01-29T08:42:39.533Z,90.14
2018-01-29T08:43:39.738Z,90.22
2018-01-29T08:44:39.512Z,89.99
2018-01-29T08:45:39.576Z,90.05
2018-01-29T08:46:39.531Z,90.01
2018-01-29T08:47:39.554Z,90.16
2018-01-29T08:48:39.693Z,90.22
2018-01-29T08:49:39.535Z,90.17
2018-01-29T08:50:39.556Z,90.14
2018-01-29T08:51:39.546Z,90.03
2018-01-29T08:52:40.073Z,90.01
2018-01-29T08:53:39.608Z,90.01
2018-01-29T08:54:39.627Z,90.03
2018-01-29T08:55:39.590Z,90.17
2018-01-29T08:56:39.618Z,89.9
2018-01-29T08:57:39.673Z,89.84
2018-01-29T08:58:39.783Z,89.94
2018-01-29T08:59:39.668Z,89.91
2018-01-29T09:00:40.620Z,89.98
2018-01-29T09:01:39.483Z,89.71
2018-01-29T09:02:39.583Z,89.85
2018-01-29T09:03:39.670Z,89.81
2018-01-29T09:04:39.603Z,89.8
2018-01-29T09:05:40.022Z,89.79
2018-01-29T09:06:39.869Z,89.65
2018-01-29T09:07:39.790Z,89.7
2018-01-29T09:08:39.508Z,89.27
2018-01-29T09:09:39.581Z,89.39
2018-01-29T09:10:40.097Z,89.37
2018-01-29T09:11:39.712Z,89.33
2018-01-29T09:12:39.732Z,89.27
2018-01-29T09:13:39.580Z,89.25
2018-01-29T09:14:39.645Z,89.13
2018-01-29T09:15:39.640Z,89.09
2018-01-29T09:16:39.754Z,89.16
2018-01-29T09:17:39.694Z,89.11
2018-01-29T09:18:39.767Z,89.2
2018-01-29T09:19:39.552Z,89.04
2018-01-29T09:20:39.540Z,89.02
2018-01-29T09:21:39.712Z,89.04
2018-01-29T09:22:39.710Z,89.2
2018-01-29T09:23:39.590Z,89.13
2018-01-29T09:24:39.679Z,89.09
2018-01-29T09:25:39.728Z,89.08
2018-01-29T09:26:39.532Z,88.95
2018-01-29T09:27:39.744Z,89.01
2018-01-29T09:28:39.683Z,89.07
2018-01-29T09:29:39.756Z,89.03
2018-01-29T09:30:39.674Z,89.12
2018-01-29T09:31:39.753Z,89.03
2018-01-29T09:32:39.697Z,89.05
2018-01-29T09:33:39.814Z,88.94
2018-01-29T09:34:39.692Z,88.93
2018-01-29T09:35:39.662Z,88.94
2018-01-29T09:36:39.706Z,88.99
2018-01-29T09:37:39.803Z,89
2018-01-29T09:38:40.209Z,89.09
2018-01-29T09:39:39.744Z,88.98
2018-01-29T09:40:40.680Z,89.01
2018-01-29T09:41:40.018Z,88.94
2018-01-29T09:42:40.182Z,88.98
2018-01-29T09:43:39.950Z,88.92
2018-01-29T09:44:40.287Z,88.86
2018-01-29T09:45:39.947Z,88.79
2018-01-29T09:46:39.708Z,88.83
2018-01-29T09:47:39.559Z,88.8
2018-01-29T09:48:39.669Z,88.78
2018-01-29T09:49:39.821Z,88.81
2018-01-29T09:50:39.691Z,88.85
2018-01-29T09:51:40.207Z,88.87
2018-01-29T09:52:39.720Z,88.78
2018-01-29T09:53:40.034Z,88.67
2018-01-29T09:54:39.746Z,88.6
2018-01-29T09:55:39.673Z,88.7
2018-01-29T09:56:40.110Z,88.57
2018-01-29T09:57:40.149Z,88.7
2018-01-29T09:58:40.460Z,88.58
2018-01-29T09:59:39.677Z,88.6
2018-01-29T10:00:39.983Z,88.63
2018-01-29T10:01:40.035Z,88.66
2018-01-29T10:02:39.691Z,88.54
2018-01-29T10:03:39.914Z,88.55
2018-01-29T10:04:39.691Z,88.47
2018-01-29T10:05:39.600Z,88.47
2018-01-29T10:06:39.747Z,88.51
2018-01-29T10:07:39.652Z,88.49
2018-01-29T10:08:39.613Z,88.65
2018-01-29T10:09:39.431Z,88.28
2018-01-29T10:10:39.602Z,88.33
2018-01-29T10:11:39.368Z,88.36
2018-01-29T10:12:39.558Z,88.42
2018-01-29T10:13:39.554Z,88.3
2018-01-29T10:14:39.459Z,88.3
2018-01-29T10:15:39.534Z,88.18
2018-01-29T10:16:39.546Z,88.25
2018-01-29T10:17:39.650Z,88.18
2018-01-29T10:18:39.653Z,88.2
2018-01-29T10:19:39.554Z,88.22
2018-01-29T10:20:39.776Z,88.16
2018-01-29T10:21:39.664Z,88.23
2018-01-29T10:22:39.706Z,88.32
2018-01-29T10:23:39.701Z,88.22
2018-01-29T10:24:39.715Z,88.31
2018-01-29T10:25:39.629Z,88.23
2018-01-29T10:26:39.588Z,88.19
2018-01-29T10:27:39.707Z,88.25
2018-01-29T10:28:39.551Z,88.31
2018-01-29T10:29:39.564Z,88.32
2018-01-29T10:30:39.436Z,88.39
2018-01-29T10:31:39.446Z,88.35
2018-01-29T10:32:39.726Z,88.27
2018-01-29T10:33:39.629Z,88.23
2018-01-29T10:34:39.622Z,88.17
2018-01-29T10:35:39.820Z,88.2
2018-01-29T10:36:39.520Z,88.03
2018-01-29T10:37:39.554Z,88.04
2018-01-29T10:38:39.600Z,88.1
2018-01-29T10:39:39.717Z,88.18
2018-01-29T10:40:39.403Z,88.24
2018-01-29T10:41:39.537Z,88.03
2018-01-29T10:42:39.764Z,88.12
2018-01-29T10:43:39.683Z,88.21
2018-01-29T10:44:39.684Z,88.21
2018-01-29T10:45:39.712Z,88.08
2018-01-29T10:46:39.727Z,87.96
2018-01-29T10:47:39.774Z,88.03
2018-01-29T10:48:39.660Z,87.91
2018-01-29T10:49:40.087Z,88.02
2018-01-29T10:50:39.754Z,87.89
2018-01-29T10:51:39.636Z,87.63
2018-01-29T10:52:39.513Z,87.73
2018-01-29T10:53:39.773Z,87.58
2018-01-29T10:54:39.641Z,87.75
2018-01-29T10:55:39.712Z,87.68
2018-01-29T10:56:39.588Z,87.67
2018-01-29T11:00:40.015Z,87.62
2018-01-29T11:01:39.637Z,87.59
2018-01-29T11:02:39.759Z,87.56
2018-01-29T11:03:40.072Z,87.45
2018-01-29T11:04:39.868Z,87.56
2018-01-29T11:05:40.475Z,87.56
2018-01-29T11:06:39.771Z,87.42
2018-01-29T11:07:39.885Z,87.07
2018-01-29T11:08:39.786Z,87.13
2018-01-29T11:09:40.071Z,87.11
2018-01-29T11:10:40.164Z,87.11
2018-01-29T11:11:39.911Z,87.22
2018-01-29T11:12:39.668Z,87.1
2018-01-29T11:13:39.895Z,86.94
2018-01-29T11:14:40.276Z,86.84
2018-01-29T11:15:39.905Z,86.87
2018-01-29T11:16:39.945Z,86.9
2018-01-29T11:17:39.876Z,86.98
2018-01-29T11:18:39.830Z,87.01
2018-01-29T11:19:39.937Z,86.61
2018-01-29T11:20:39.748Z,86.8
2018-01-29T11:21:39.893Z,86.98
2018-01-29T11:22:39.769Z,87
2018-01-29T11:23:39.836Z,86.89
2018-01-29T11:24:39.925Z,86.75
2018-01-29T11:25:39.771Z,86.66
2018-01-29T11:26:39.854Z,86.71
2018-01-29T11:27:40.088Z,86.51
2018-01-29T11:28:39.772Z,86.4
2018-01-29T11:29:40.009Z,86.32
2018-01-29T11:30:39.790Z,86.51
2018-01-29T11:31:39.995Z,86.5
2018-01-29T11:32:39.877Z,86.29
2018-01-29T11:33:40.129Z,86.36
2018-01-29T11:34:40.171Z,86.61
2018-01-29T11:35:39.793Z,86.66
2018-01-29T11:36:39.869Z,86.36
2018-01-29T11:37:39.775Z,86.21
2018-01-29T11:38:39.899Z,86.4
2018-01-29T11:39:39.863Z,86.01
2018-01-29T11:40:39.759Z,86.21
2018-01-29T11:41:39.785Z,86.2
2018-01-29T11:42:39.932Z,85.84
2018-01-29T11:43:40.054Z,85.87
2018-01-29T11:44:39.961Z,85.96
2018-01-29T11:45:39.906Z,85.98
2018-01-29T11:46:39.997Z,85.85
2018-01-29T11:47:40.069Z,85.61
2018-01-29T11:48:40.126Z,85.82
2018-01-29T11:49:40.132Z,86.01
2018-01-29T11:50:39.862Z,86.06
2018-01-29T11:51:40.006Z,86.04
2018-01-29T11:52:40.096Z,86.11
2018-01-29T11:53:39.936Z,86.11
2018-01-29T11:54:40.096Z,85.98
2018-01-29T11:55:39.753Z,86.11
2018-01-29T11:56:39.813Z,86.09
2018-01-29T11:57:39.739Z,86.09
2018-01-29T11:58:40.032Z,85.89
2018-01-29T12:00:39.712Z,86.18
2018-01-29T12:01:39.742Z,86.29
2018-01-29T12:02:39.998Z,86.12
2018-01-29T12:03:40.632Z,86.33
2018-01-29T12:04:39.095Z,86.22
2018-01-29T12:05:39.187Z,86.19
2018-01-29T12:06:39.651Z,86.38
2018-01-29T12:07:39.067Z,86.41
2018-01-29T12:08:39.179Z,86.28
2018-01-29T12:09:39.200Z,86.11
2018-01-29T12:10:39.265Z,86.17
2018-01-29T12:11:39.144Z,86.23
2018-01-29T12:12:39.483Z,86.08
2018-01-29T12:13:39.053Z,86.14
2018-01-29T12:14:39.062Z,86.21
2018-01-29T12:15:39.338Z,86.23
2018-01-29T12:16:39.105Z,86.35
2018-01-29T12:17:39.332Z,86.24
2018-01-29T12:18:39.352Z,86.27
2018-01-29T12:19:39.153Z,86.31
2018-01-29T12:20:39.239Z,86.34
2018-01-29T12:21:39.240Z,86.31
2018-01-29T12:22:39.219Z,86.3
2018-01-29T12:23:39.217Z,86.37
2018-01-29T12:24:39.200Z,86.46
2018-01-29T12:25:39.192Z,86.63
2018-01-29T12:26:39.212Z,86.46
2018-01-29T12:27:39.207Z,86.5
2018-01-29T12:28:39.212Z,86.41
2018-01-29T12:29:39.088Z,86.41
2018-01-29T12:30:39.197Z,86.34
2018-01-29T12:31:39.472Z,86.31
2018-01-29T12:32:39.155Z,86.63
2018-01-29T12:33:39.723Z,86.54
2018-01-29T12:34:39.456Z,86.43
2018-01-29T12:35:39.588Z,86.24
2018-01-29T12:36:39.365Z,86.41
2018-01-29T12:37:39.391Z,86.44
2018-01-29T12:38:39.248Z,86.57
2018-01-29T12:39:39.392Z,86.4
2018-01-29T12:40:39.287Z,86.31
2018-01-29T12:41:39.249Z,86.22
2018-01-29T12:42:39.287Z,86.09
2018-01-29T12:43:39.327Z,86.16
2018-01-29T12:44:39.491Z,86.25
2018-01-29T12:45:39.298Z,86.35
2018-01-29T12:46:39.621Z,86.47
2018-01-29T12:47:39.606Z,86.5
2018-01-29T12:48:39.446Z,86.43
2018-01-29T12:49:39.560Z,86.38
2018-01-29T12:50:39.398Z,86.33
2018-01-29T12:51:39.786Z,86.27
2018-01-29T12:52:39.516Z,86.22
2018-01-29T12:53:39.481Z,86.13
2018-01-29T12:54:39.600Z,86.02
2018-01-29T12:55:39.407Z,86.06
2018-01-29T12:56:39.340Z,86.11
2018-01-29T12:57:39.238Z,86.04
2018-01-29T12:58:39.329Z,85.98
2018-01-29T12:59:39.556Z,86.12
2018-01-29T13:00:39.401Z,86.21
2018-01-29T13:01:39.279Z,86.25
2018-01-29T13:02:39.388Z,86.37
2018-01-29T13:03:39.548Z,86.43
2018-01-29T13:04:39.759Z,86.23